Friday, April 18, 2014
20:44 UTC
  |  Log In   |  Register Free
Airport Search:

Chanute Martin Johnson Airport
(KCNU)

Chanute Martin Johnson Airport Diagram
No Airport Diagram Available

FAA data valid effective April 3, 2014 until May 29, 2014 (unless otherwise noted).

 
 
 
 
 
 
 
 
 
 
 
 
 
 

Current Aviation Weather for Chanute Martin Johnson Airport (KCNU)

The most recent METAR observation for KCNU was updated at: 1952 UTC
METAR Summary (Translated METAR)
KCNU
181952Z AUTO 11007KT 10SM CLR 20/05 A3023 RMK AO2 SLP236 T02000050
KPPF
(20.3 nm SW from KCNU)
181952Z AUTO VRB06KT 10SM CLR 22/04 A3023 RMK AO2 SLP235 T02170044 TSNO
TAF Summary (Translated TAF)
KCNU
181725Z 1818/1918 15008KT P6SM SKC FM191600 18016G22KT P6SM BKN250
  Airport Weather Conditions for KCNU

 Current Weather at CNU
68° F
Fair
East winds at 8.1 mph
CNU NOAA Radar

Pressure: 30.23 in
Humidity: 38%
Wind: East at 8.1 MPH (7 KT)
Dew Point: 41.0°F
Visibility: 10.00 mi


Airport Weather Forecast for KCNU

Translated METAR and TAF for KCNU
Translated METAR for KCNU (2044 UTC 18 April 2014)
found at http://aviationweather.gov/adds/metars/
 
METAR text: KCNU 181952Z AUTO 11007KT 10SM CLR 20/05 A3023 RMK AO2 SLP236 T02000050
Conditions at: KCNU (CHANUTE , KS, US) observed 1952 UTC 18 April 2014
Temperature: 20.0°C (68°F)
Dewpoint: 5.0°C (41°F) [RH = 37%]
Pressure (altimeter): 30.23 inches Hg (1023.8 mb)
[Sea-level pressure: 1023.6 mb]
Winds: from the ESE (110 degrees) at 8 MPH (7 knots; 3.6 m/s)
Visibility: 10 or more miles (16+ km)
Ceiling: at least 12,000 feet AGL
Clouds: sky clear below 12,000 feet AGL
Weather: automated observation with no human augmentation;
there may or may not be significant weather present at this time
Translated TAF for KCNU
Forecast for: KCNU (CHANUTE , KS, US)
TAF Text: KCNU 181725Z 1818/1918 15008KT P6SM SKC
Forecast period: 1800 UTC 18 April 2014 to 1600 UTC 19 April 2014
Forecast type: FROM: standard forecast or significant change
Winds: from the SSE (150 degrees) at 9 MPH (8 knots; 4.2 m/s)
Visibility: 6 or more miles (10+ km)
Clouds: clear skies
Weather: no significant weather forecast for this period
TAF Text: FM191600 18016G22KT P6SM BKN250
Forecast period: 1600 to 1800 UTC 19 April 2014
Forecast type: FROM: standard forecast or significant change
Winds: from the S (180 degrees) at 18 MPH (16 knots; 8.3 m/s)
gusting to 25 MPH (22 knots; 11.4 m/s)
Visibility: 6 or more miles (10+ km)
Ceiling: 25000 feet AGL
Clouds: broken clouds at 25000 feet AGL
Weather: no significant weather forecast for this period

Find All Airport Services Find A Hotel Find A Rental Car Find A Golf Course Find A Restaurant $100 Hamburger



FBO's on the Field
FBO Company Facility Photos Services Transportation Aviation Fuel Prices: Prices include tax
Catering Weather Repair Courtesy Rental Type 100LL JetA JetA+ MOGAS 8087
 
City of Chanute

This FBO has not yet been rated
FS:Phillips66
Last Updated: Mar-20
Login to update fuel prices
SS:
Contact City of ChanuteMore FBO Information
 
Add another FBO Facility Photos Catering Weather Repair Courtesy Rental Type 100LL JetA JetA+ MOGAS 8087
Services Transportation Aviation Fuel Prices: Prices include tax


GlobalAir.com Airport Resource Center model-print
model-print
model-print
model-print